sensor_id;sensor_type;location;lat;lon;timestamp;temperature;humidity
37998;DHT22;24079;51.824;4.682;2022-09-09T00:04:05;16.10;99.90
37998;DHT22;24079;51.824;4.682;2022-09-09T00:09:19;16.10;99.90
37998;DHT22;24079;51.824;4.682;2022-09-09T00:17:09;16.00;99.90
37998;DHT22;24079;51.824;4.682;2022-09-09T00:20:00;16.00;99.90
37998;DHT22;24079;51.824;4.682;2022-09-09T00:22:29;16.00;99.90
37998;DHT22;24079;51.824;4.682;2022-09-09T00:25:08;16.00;99.90
37998;DHT22;24079;51.824;4.682;2022-09-09T00:27:47;16.00;99.90
37998;DHT22;24079;51.824;4.682;2022-09-09T00:30:14;16.00;99.90
37998;DHT22;24079;51.824;4.682;2022-09-09T00:32:41;16.00;99.90
37998;DHT22;24079;51.824;4.682;2022-09-09T00:35:16;16.00;99.90
37998;DHT22;24079;51.824;4.682;2022-09-09T00:37:44;16.00;99.90
37998;DHT22;24079;51.824;4.682;2022-09-09T00:40:33;16.00;99.90
37998;DHT22;24079;51.824;4.682;2022-09-09T00:43:25;16.00;99.90
37998;DHT22;24079;51.824;4.682;2022-09-09T00:46:14;16.00;99.90
37998;DHT22;24079;51.824;4.682;2022-09-09T00:48:54;16.00;99.90
37998;DHT22;24079;51.824;4.682;2022-09-09T00:54:28;15.90;99.90
37998;DHT22;24079;51.824;4.682;2022-09-09T00:57:21;16.00;99.90
37998;DHT22;24079;51.824;4.682;2022-09-09T01:00:16;15.90;99.90
37998;DHT22;24079;51.824;4.682;2022-09-09T01:05:45;15.90;99.90
37998;DHT22;24079;51.824;4.682;2022-09-09T01:10:52;15.90;99.90
37998;DHT22;24079;51.824;4.682;2022-09-09T01:13:31;15.90;99.90
37998;DHT22;24079;51.824;4.682;2022-09-09T01:16:00;15.90;99.90
37998;DHT22;24079;51.824;4.682;2022-09-09T01:18:31;15.90;99.90
37998;DHT22;24079;51.824;4.682;2022-09-09T01:25:01;16.00;99.90
37998;DHT22;24079;51.824;4.682;2022-09-09T01:27:01;16.00;99.90
37998;DHT22;24079;51.824;4.682;2022-09-09T01:29:27;16.00;99.90
37998;DHT22;24079;51.824;4.682;2022-09-09T01:35:27;16.00;99.90
37998;DHT22;24079;51.824;4.682;2022-09-09T01:37:55;16.00;99.90
37998;DHT22;24079;51.824;4.682;2022-09-09T01:40:21;16.00;99.90
37998;DHT22;24079;51.824;4.682;2022-09-09T01:42:47;16.00;99.90
37998;DHT22;24079;51.824;4.682;2022-09-09T01:45:13;16.00;99.90
37998;DHT22;24079;51.824;4.682;2022-09-09T01:47:38;16.00;99.90
37998;DHT22;24079;51.824;4.682;2022-09-09T01:50:04;16.00;99.90
37998;DHT22;24079;51.824;4.682;2022-09-09T01:52:38;16.00;99.90
37998;DHT22;24079;51.824;4.682;2022-09-09T01:55:05;16.00;99.90
37998;DHT22;24079;51.824;4.682;2022-09-09T01:57:39;16.00;99.90
37998;DHT22;24079;51.824;4.682;2022-09-09T02:00:10;16.00;99.90
37998;DHT22;24079;51.824;4.682;2022-09-09T02:03:00;15.90;99.90
37998;DHT22;24079;51.824;4.682;2022-09-09T02:10:44;16.00;99.90
37998;DHT22;24079;51.824;4.682;2022-09-09T02:13:14;15.90;99.90
37998;DHT22;24079;51.824;4.682;2022-09-09T02:15:45;15.90;99.90
37998;DHT22;24079;51.824;4.682;2022-09-09T02:18:14;16.00;99.90
37998;DHT22;24079;51.824;4.682;2022-09-09T02:20:43;15.90;99.90
37998;DHT22;24079;51.824;4.682;2022-09-09T02:23:11;15.90;99.90
37998;DHT22;24079;51.824;4.682;2022-09-09T02:25:38;15.90;99.90
37998;DHT22;24079;51.824;4.682;2022-09-09T02:28:07;15.90;99.90
37998;DHT22;24079;51.824;4.682;2022-09-09T02:30:36;15.80;99.90
37998;DHT22;24079;51.824;4.682;2022-09-09T02:33:04;15.80;99.90
37998;DHT22;24079;51.824;4.682;2022-09-09T02:35:32;15.90;99.90
37998;DHT22;24079;51.824;4.682;2022-09-09T02:38:08;15.80;99.90
37998;DHT22;24079;51.824;4.682;2022-09-09T02:40:35;15.80;99.90
37998;DHT22;24079;51.824;4.682;2022-09-09T02:43:01;15.80;99.90
37998;DHT22;24079;51.824;4.682;2022-09-09T02:45:41;15.80;99.90
37998;DHT22;24079;51.824;4.682;2022-09-09T02:51:10;15.70;99.90
37998;DHT22;24079;51.824;4.682;2022-09-09T02:56:23;15.70;99.90
37998;DHT22;24079;51.824;4.682;2022-09-09T02:58:51;15.70;99.90
37998;DHT22;24079;51.824;4.682;2022-09-09T03:01:17;15.80;99.90
37998;DHT22;24079;51.824;4.682;2022-09-09T03:03:43;15.80;99.90
37998;DHT22;24079;51.824;4.682;2022-09-09T03:06:09;15.80;99.90
37998;DHT22;24079;51.824;4.682;2022-09-09T03:08:37;15.80;99.90
37998;DHT22;24079;51.824;4.682;2022-09-09T03:11:02;15.70;99.90
37998;DHT22;24079;51.824;4.682;2022-09-09T03:13:28;15.70;99.90
37998;DHT22;24079;51.824;4.682;2022-09-09T03:15:54;15.70;99.90
37998;DHT22;24079;51.824;4.682;2022-09-09T03:18:19;15.70;99.90
37998;DHT22;24079;51.824;4.682;2022-09-09T03:20:46;15.70;99.90
37998;DHT22;24079;51.824;4.682;2022-09-09T03:23:14;15.70;99.90
37998;DHT22;24079;51.824;4.682;2022-09-09T03:25:39;15.70;99.90
37998;DHT22;24079;51.824;4.682;2022-09-09T03:28:11;15.70;99.90
37998;DHT22;24079;51.824;4.682;2022-09-09T03:30:37;15.70;99.90
37998;DHT22;24079;51.824;4.682;2022-09-09T03:33:03;15.80;99.90
37998;DHT22;24079;51.824;4.682;2022-09-09T03:35:29;15.70;99.90
37998;DHT22;24079;51.824;4.682;2022-09-09T03:37:55;15.70;99.90
37998;DHT22;24079;51.824;4.682;2022-09-09T03:40:21;15.70;99.90
37998;DHT22;24079;51.824;4.682;2022-09-09T03:42:47;15.70;99.90
37998;DHT22;24079;51.824;4.682;2022-09-09T03:45:14;15.70;99.90
37998;DHT22;24079;51.824;4.682;2022-09-09T03:47:40;15.70;99.90
37998;DHT22;24079;51.824;4.682;2022-09-09T03:50:06;15.70;99.90
37998;DHT22;24079;51.824;4.682;2022-09-09T03:52:37;15.70;99.90
37998;DHT22;24079;51.824;4.682;2022-09-09T03:55:04;15.70;99.90
37998;DHT22;24079;51.824;4.682;2022-09-09T03:57:30;15.70;99.90
37998;DHT22;24079;51.824;4.682;2022-09-09T03:59:55;15.70;99.90
37998;DHT22;24079;51.824;4.682;2022-09-09T04:02:21;15.70;99.90
37998;DHT22;24079;51.824;4.682;2022-09-09T04:04:47;15.70;99.90
37998;DHT22;24079;51.824;4.682;2022-09-09T04:07:12;15.70;99.90
37998;DHT22;24079;51.824;4.682;2022-09-09T04:09:38;15.70;99.90
37998;DHT22;24079;51.824;4.682;2022-09-09T04:12:04;15.70;99.90
37998;DHT22;24079;51.824;4.682;2022-09-09T04:14:29;15.70;99.90
37998;DHT22;24079;51.824;4.682;2022-09-09T04:16:55;15.70;99.90
37998;DHT22;24079;51.824;4.682;2022-09-09T04:19:22;15.60;99.90
37998;DHT22;24079;51.824;4.682;2022-09-09T04:21:48;15.60;99.90
37998;DHT22;24079;51.824;4.682;2022-09-09T04:24:15;15.60;99.90
37998;DHT22;24079;51.824;4.682;2022-09-09T04:26:42;15.50;99.90
37998;DHT22;24079;51.824;4.682;2022-09-09T04:29:08;15.50;99.90
37998;DHT22;24079;51.824;4.682;2022-09-09T04:31:34;15.60;99.90
37998;DHT22;24079;51.824;4.682;2022-09-09T04:33:59;15.60;99.90
37998;DHT22;24079;51.824;4.682;2022-09-09T04:36:31;15.70;99.90
37998;DHT22;24079;51.824;4.682;2022-09-09T04:38:57;15.60;99.90
37998;DHT22;24079;51.824;4.682;2022-09-09T04:41:22;15.60;99.90
37998;DHT22;24079;51.824;4.682;2022-09-09T04:43:49;15.60;99.90
37998;DHT22;24079;51.824;4.682;2022-09-09T04:46:14;15.60;99.90
37998;DHT22;24079;51.824;4.682;2022-09-09T04:48:42;15.50;99.90
37998;DHT22;24079;51.824;4.682;2022-09-09T04:51:12;15.50;99.90
37998;DHT22;24079;51.824;4.682;2022-09-09T04:53:38;15.60;99.90
37998;DHT22;24079;51.824;4.682;2022-09-09T04:56:09;15.60;99.90
37998;DHT22;24079;51.824;4.682;2022-09-09T04:58:36;15.60;99.90
37998;DHT22;24079;51.824;4.682;2022-09-09T05:01:16;15.60;99.90
37998;DHT22;24079;51.824;4.682;2022-09-09T05:03:42;15.70;99.90
37998;DHT22;24079;51.824;4.682;2022-09-09T05:06:12;15.70;99.90
37998;DHT22;24079;51.824;4.682;2022-09-09T05:08:39;15.70;99.90
37998;DHT22;24079;51.824;4.682;2022-09-09T05:13:44;15.60;99.90
37998;DHT22;24079;51.824;4.682;2022-09-09T05:16:10;15.70;99.90
37998;DHT22;24079;51.824;4.682;2022-09-09T05:18:39;15.70;99.90
37998;DHT22;24079;51.824;4.682;2022-09-09T05:21:04;15.80;99.90
37998;DHT22;24079;51.824;4.682;2022-09-09T05:23:30;15.70;99.90
37998;DHT22;24079;51.824;4.682;2022-09-09T05:25:57;15.80;99.90
37998;DHT22;24079;51.824;4.682;2022-09-09T05:28:26;15.80;99.90
37998;DHT22;24079;51.824;4.682;2022-09-09T05:31:00;15.80;99.90
37998;DHT22;24079;51.824;4.682;2022-09-09T05:33:26;15.80;99.90
37998;DHT22;24079;51.824;4.682;2022-09-09T05:35:57;15.80;99.90
37998;DHT22;24079;51.824;4.682;2022-09-09T05:38:23;15.80;99.90
37998;DHT22;24079;51.824;4.682;2022-09-09T05:40:51;15.80;99.90
37998;DHT22;24079;51.824;4.682;2022-09-09T05:43:18;15.80;99.90
37998;DHT22;24079;51.824;4.682;2022-09-09T05:45:43;15.80;99.90
37998;DHT22;24079;51.824;4.682;2022-09-09T05:48:09;15.80;99.90
37998;DHT22;24079;51.824;4.682;2022-09-09T05:50:35;15.80;99.90
37998;DHT22;24079;51.824;4.682;2022-09-09T05:53:00;15.80;99.90
37998;DHT22;24079;51.824;4.682;2022-09-09T05:55:26;15.80;99.90
37998;DHT22;24079;51.824;4.682;2022-09-09T05:57:52;15.90;99.90
37998;DHT22;24079;51.824;4.682;2022-09-09T06:00:18;15.90;99.90
37998;DHT22;24079;51.824;4.682;2022-09-09T06:02:43;16.00;99.90
37998;DHT22;24079;51.824;4.682;2022-09-09T06:05:09;16.10;99.90
37998;DHT22;24079;51.824;4.682;2022-09-09T06:07:36;16.00;99.90
37998;DHT22;24079;51.824;4.682;2022-09-09T06:10:02;16.10;99.90
37998;DHT22;24079;51.824;4.682;2022-09-09T06:12:28;16.20;99.90
37998;DHT22;24079;51.824;4.682;2022-09-09T06:14:54;16.30;99.90
37998;DHT22;24079;51.824;4.682;2022-09-09T06:17:19;16.40;99.90
37998;DHT22;24079;51.824;4.682;2022-09-09T06:19:45;16.50;99.90
37998;DHT22;24079;51.824;4.682;2022-09-09T06:22:10;16.50;99.90
37998;DHT22;24079;51.824;4.682;2022-09-09T06:24:37;16.50;99.90
37998;DHT22;24079;51.824;4.682;2022-09-09T06:27:03;16.60;99.90
37998;DHT22;24079;51.824;4.682;2022-09-09T06:29:30;16.60;99.90
37998;DHT22;24079;51.824;4.682;2022-09-09T06:31:56;16.70;99.90
37998;DHT22;24079;51.824;4.682;2022-09-09T06:34:21;16.90;99.90
37998;DHT22;24079;51.824;4.682;2022-09-09T06:36:47;16.90;99.90
37998;DHT22;24079;51.824;4.682;2022-09-09T06:39:13;16.90;99.90
37998;DHT22;24079;51.824;4.682;2022-09-09T06:41:40;16.90;99.90
37998;DHT22;24079;51.824;4.682;2022-09-09T06:44:07;17.10;99.90
37998;DHT22;24079;51.824;4.682;2022-09-09T06:46:33;17.10;99.90
37998;DHT22;24079;51.824;4.682;2022-09-09T06:48:59;17.20;99.90
37998;DHT22;24079;51.824;4.682;2022-09-09T06:51:30;17.40;99.90
37998;DHT22;24079;51.824;4.682;2022-09-09T06:53:58;17.60;99.90
37998;DHT22;24079;51.824;4.682;2022-09-09T06:56:32;17.70;99.90
37998;DHT22;24079;51.824;4.682;2022-09-09T06:59:02;17.60;99.90
37998;DHT22;24079;51.824;4.682;2022-09-09T07:01:34;17.70;99.90
37998;DHT22;24079;51.824;4.682;2022-09-09T07:04:00;17.70;99.90
37998;DHT22;24079;51.824;4.682;2022-09-09T07:06:47;17.60;99.90
37998;DHT22;24079;51.824;4.682;2022-09-09T07:09:14;17.50;99.90
37998;DHT22;24079;51.824;4.682;2022-09-09T07:11:45;17.30;99.90
37998;DHT22;24079;51.824;4.682;2022-09-09T07:14:12;17.30;99.90
37998;DHT22;24079;51.824;4.682;2022-09-09T07:16:42;17.40;99.90
37998;DHT22;24079;51.824;4.682;2022-09-09T07:19:08;17.40;99.90
37998;DHT22;24079;51.824;4.682;2022-09-09T07:21:34;17.30;99.90
37998;DHT22;24079;51.824;4.682;2022-09-09T07:24:00;17.30;99.90
37998;DHT22;24079;51.824;4.682;2022-09-09T07:26:28;17.40;99.90
37998;DHT22;24079;51.824;4.682;2022-09-09T07:28:55;17.30;99.90
37998;DHT22;24079;51.824;4.682;2022-09-09T07:31:30;17.40;99.90
37998;DHT22;24079;51.824;4.682;2022-09-09T07:33:59;17.40;99.90
37998;DHT22;24079;51.824;4.682;2022-09-09T07:36:30;17.40;99.90
37998;DHT22;24079;51.824;4.682;2022-09-09T07:38:58;17.50;99.90
37998;DHT22;24079;51.824;4.682;2022-09-09T07:41:29;17.40;99.90
37998;DHT22;24079;51.824;4.682;2022-09-09T07:43:57;17.40;99.90
37998;DHT22;24079;51.824;4.682;2022-09-09T07:46:25;17.30;99.90
37998;DHT22;24079;51.824;4.682;2022-09-09T07:48:56;17.40;99.90
37998;DHT22;24079;51.824;4.682;2022-09-09T07:51:31;17.30;99.90
37998;DHT22;24079;51.824;4.682;2022-09-09T07:53:59;17.20;99.90
37998;DHT22;24079;51.824;4.682;2022-09-09T07:56:26;17.20;99.90
37998;DHT22;24079;51.824;4.682;2022-09-09T07:58:53;17.20;99.90
37998;DHT22;24079;51.824;4.682;2022-09-09T08:01:25;17.10;99.90
37998;DHT22;24079;51.824;4.682;2022-09-09T08:03:52;17.10;99.90
37998;DHT22;24079;51.824;4.682;2022-09-09T08:06:19;17.10;99.90
37998;DHT22;24079;51.824;4.682;2022-09-09T08:08:44;17.20;99.90
37998;DHT22;24079;51.824;4.682;2022-09-09T08:11:14;17.20;99.90
37998;DHT22;24079;51.824;4.682;2022-09-09T08:13:41;17.50;99.90
37998;DHT22;24079;51.824;4.682;2022-09-09T08:16:21;17.60;99.90
37998;DHT22;24079;51.824;4.682;2022-09-09T08:18:48;17.70;99.90
37998;DHT22;24079;51.824;4.682;2022-09-09T08:21:23;17.90;99.90
37998;DHT22;24079;51.824;4.682;2022-09-09T08:23:51;17.90;99.90
37998;DHT22;24079;51.824;4.682;2022-09-09T08:26:18;17.90;99.90
37998;DHT22;24079;51.824;4.682;2022-09-09T08:28:48;17.80;99.90
37998;DHT22;24079;51.824;4.682;2022-09-09T08:31:32;17.70;99.90
37998;DHT22;24079;51.824;4.682;2022-09-09T08:33:59;17.70;99.90
37998;DHT22;24079;51.824;4.682;2022-09-09T08:36:27;17.70;99.90
37998;DHT22;24079;51.824;4.682;2022-09-09T08:38:54;17.60;99.90
37998;DHT22;24079;51.824;4.682;2022-09-09T08:46:57;17.50;99.90
37998;DHT22;24079;51.824;4.682;2022-09-09T08:52:18;17.60;99.90
37998;DHT22;24079;51.824;4.682;2022-09-09T08:54:45;17.60;99.90
37998;DHT22;24079;51.824;4.682;2022-09-09T08:57:14;17.60;99.90
37998;DHT22;24079;51.824;4.682;2022-09-09T08:59:43;17.70;99.90
37998;DHT22;24079;51.824;4.682;2022-09-09T09:02:16;17.80;99.90
37998;DHT22;24079;51.824;4.682;2022-09-09T09:04:52;17.90;99.90
37998;DHT22;24079;51.824;4.682;2022-09-09T09:07:52;17.80;99.90
37998;DHT22;24079;51.824;4.682;2022-09-09T09:12:48;17.80;99.90
37998;DHT22;24079;51.824;4.682;2022-09-09T09:15:19;17.70;99.90
37998;DHT22;24079;51.824;4.682;2022-09-09T09:17:46;17.60;99.90
37998;DHT22;24079;51.824;4.682;2022-09-09T09:20:14;17.60;99.90
37998;DHT22;24079;51.824;4.682;2022-09-09T09:22:51;17.50;99.90
37998;DHT22;24079;51.824;4.682;2022-09-09T09:30:17;17.60;99.90
37998;DHT22;24079;51.824;4.682;2022-09-09T09:35:21;17.80;99.90
37998;DHT22;24079;51.824;4.682;2022-09-09T09:37:48;17.90;99.90
37998;DHT22;24079;51.824;4.682;2022-09-09T09:40:16;17.90;99.90
37998;DHT22;24079;51.824;4.682;2022-09-09T09:42:59;17.90;99.90
37998;DHT22;24079;51.824;4.682;2022-09-09T09:45:41;18.10;99.90
37998;DHT22;24079;51.824;4.682;2022-09-09T09:48:12;18.30;99.90
37998;DHT22;24079;51.824;4.682;2022-09-09T09:50:58;18.30;99.90
37998;DHT22;24079;51.824;4.682;2022-09-09T09:53:28;18.50;99.90
37998;DHT22;24079;51.824;4.682;2022-09-09T09:56:03;18.50;99.90
37998;DHT22;24079;51.824;4.682;2022-09-09T09:58:51;18.60;99.90
37998;DHT22;24079;51.824;4.682;2022-09-09T10:01:25;18.60;99.90
37998;DHT22;24079;51.824;4.682;2022-09-09T10:03:55;18.50;99.90
37998;DHT22;24079;51.824;4.682;2022-09-09T10:06:36;18.50;99.90
37998;DHT22;24079;51.824;4.682;2022-09-09T10:09:17;18.60;99.90
37998;DHT22;24079;51.824;4.682;2022-09-09T10:17:35;18.40;99.90
37998;DHT22;24079;51.824;4.682;2022-09-09T10:20:16;18.20;99.90
37998;DHT22;24079;51.824;4.682;2022-09-09T10:22:49;18.10;99.90
37998;DHT22;24079;51.824;4.682;2022-09-09T10:36:23;17.70;99.90
37998;DHT22;24079;51.824;4.682;2022-09-09T10:42:09;17.50;99.90
37998;DHT22;24079;51.824;4.682;2022-09-09T10:50:37;17.50;99.90
37998;DHT22;24079;51.824;4.682;2022-09-09T10:53:07;17.50;99.90
37998;DHT22;24079;51.824;4.682;2022-09-09T10:55:48;17.40;99.90
37998;DHT22;24079;51.824;4.682;2022-09-09T10:58:38;17.40;99.90
37998;DHT22;24079;51.824;4.682;2022-09-09T11:01:28;17.60;99.90
37998;DHT22;24079;51.824;4.682;2022-09-09T11:07:23;18.30;99.90
37998;DHT22;24079;51.824;4.682;2022-09-09T11:09:54;18.70;99.90
37998;DHT22;24079;51.824;4.682;2022-09-09T11:12:23;18.70;99.90
37998;DHT22;24079;51.824;4.682;2022-09-09T11:14:59;18.70;99.90
37998;DHT22;24079;51.824;4.682;2022-09-09T11:17:56;18.60;99.90
37998;DHT22;24079;51.824;4.682;2022-09-09T11:20:22;18.70;99.90
37998;DHT22;24079;51.824;4.682;2022-09-09T11:22:51;18.90;99.90
37998;DHT22;24079;51.824;4.682;2022-09-09T11:25:34;19.00;99.90
37998;DHT22;24079;51.824;4.682;2022-09-09T11:36:50;19.60;99.90
37998;DHT22;24079;51.824;4.682;2022-09-09T11:44:41;19.70;99.90
37998;DHT22;24079;51.824;4.682;2022-09-09T11:47:26;19.80;99.90
37998;DHT22;24079;51.824;4.682;2022-09-09T11:52:46;19.80;99.90
37998;DHT22;24079;51.824;4.682;2022-09-09T11:55:28;19.80;99.90
37998;DHT22;24079;51.824;4.682;2022-09-09T11:58:03;19.80;99.90
37998;DHT22;24079;51.824;4.682;2022-09-09T12:03:06;19.90;99.90
37998;DHT22;24079;51.824;4.682;2022-09-09T12:05:51;19.80;99.90
37998;DHT22;24079;51.824;4.682;2022-09-09T12:08:26;19.60;99.90
37998;DHT22;24079;51.824;4.682;2022-09-09T12:10:54;19.40;99.90
37998;DHT22;24079;51.824;4.682;2022-09-09T12:13:23;19.20;99.90
37998;DHT22;24079;51.824;4.682;2022-09-09T12:15:55;19.10;99.90
37998;DHT22;24079;51.824;4.682;2022-09-09T12:18:32;19.10;99.90
37998;DHT22;24079;51.824;4.682;2022-09-09T12:23:53;19.10;99.90
37998;DHT22;24079;51.824;4.682;2022-09-09T12:32:08;18.80;99.90
37998;DHT22;24079;51.824;4.682;2022-09-09T12:34:48;18.60;99.90
37998;DHT22;24079;51.824;4.682;2022-09-09T12:37:57;18.60;99.90
37998;DHT22;24079;51.824;4.682;2022-09-09T12:40:20;18.60;99.90
37998;DHT22;24079;51.824;4.682;2022-09-09T12:42:46;18.40;99.90
37998;DHT22;24079;51.824;4.682;2022-09-09T12:45:20;18.40;99.90
37998;DHT22;24079;51.824;4.682;2022-09-09T12:48:06;18.40;99.90
37998;DHT22;24079;51.824;4.682;2022-09-09T12:50:36;18.40;99.90
37998;DHT22;24079;51.824;4.682;2022-09-09T12:53:15;18.30;99.90
37998;DHT22;24079;51.824;4.682;2022-09-09T12:55:52;18.30;99.90
37998;DHT22;24079;51.824;4.682;2022-09-09T12:58:20;18.30;99.90
37998;DHT22;24079;51.824;4.682;2022-09-09T13:00:54;18.30;99.90
37998;DHT22;24079;51.824;4.682;2022-09-09T13:03:23;18.30;99.90
37998;DHT22;24079;51.824;4.682;2022-09-09T13:05:51;18.20;99.90
37998;DHT22;24079;51.824;4.682;2022-09-09T13:08:17;18.20;99.90
37998;DHT22;24079;51.824;4.682;2022-09-09T13:13:26;18.20;99.90
37998;DHT22;24079;51.824;4.682;2022-09-09T13:15:57;18.30;99.90
37998;DHT22;24079;51.824;4.682;2022-09-09T13:18:26;18.30;99.90
37998;DHT22;24079;51.824;4.682;2022-09-09T13:20:52;18.30;99.90
37998;DHT22;24079;51.824;4.682;2022-09-09T13:23:19;18.30;99.90
37998;DHT22;24079;51.824;4.682;2022-09-09T13:25:56;18.40;99.90
37998;DHT22;24079;51.824;4.682;2022-09-09T13:28:25;18.70;99.90
37998;DHT22;24079;51.824;4.682;2022-09-09T13:31:01;19.10;99.90
37998;DHT22;24079;51.824;4.682;2022-09-09T13:33:37;19.30;99.90
37998;DHT22;24079;51.824;4.682;2022-09-09T13:36:08;19.40;99.90
37998;DHT22;24079;51.824;4.682;2022-09-09T13:38:58;19.50;99.90
37998;DHT22;24079;51.824;4.682;2022-09-09T13:41:36;19.60;99.90
37998;DHT22;24079;51.824;4.682;2022-09-09T13:44:14;19.50;99.90
37998;DHT22;24079;51.824;4.682;2022-09-09T13:46:42;19.40;99.90
37998;DHT22;24079;51.824;4.682;2022-09-09T13:54:08;19.00;99.90
37998;DHT22;24079;51.824;4.682;2022-09-09T13:56:35;18.80;99.90
37998;DHT22;24079;51.824;4.682;2022-09-09T13:59:02;18.80;99.90
37998;DHT22;24079;51.824;4.682;2022-09-09T14:01:28;18.80;99.90
37998;DHT22;24079;51.824;4.682;2022-09-09T14:03:54;18.70;99.90
37998;DHT22;24079;51.824;4.682;2022-09-09T14:06:20;18.70;99.90
37998;DHT22;24079;51.824;4.682;2022-09-09T14:08:47;18.70;99.90
37998;DHT22;24079;51.824;4.682;2022-09-09T14:11:14;18.70;99.90
37998;DHT22;24079;51.824;4.682;2022-09-09T14:13:39;18.70;99.90
37998;DHT22;24079;51.824;4.682;2022-09-09T14:16:05;18.70;99.90
37998;DHT22;24079;51.824;4.682;2022-09-09T14:18:31;18.80;99.90
37998;DHT22;24079;51.824;4.682;2022-09-09T14:20:57;18.70;99.90
37998;DHT22;24079;51.824;4.682;2022-09-09T14:23:24;18.70;99.90
37998;DHT22;24079;51.824;4.682;2022-09-09T14:25:50;18.70;99.90
37998;DHT22;24079;51.824;4.682;2022-09-09T14:28:16;18.80;99.90
37998;DHT22;24079;51.824;4.682;2022-09-09T14:30:42;18.70;99.90
37998;DHT22;24079;51.824;4.682;2022-09-09T14:33:11;18.80;99.90
37998;DHT22;24079;51.824;4.682;2022-09-09T14:35:37;18.70;99.90
37998;DHT22;24079;51.824;4.682;2022-09-09T14:38:04;18.70;99.90
37998;DHT22;24079;51.824;4.682;2022-09-09T14:40:30;18.80;99.90
37998;DHT22;24079;51.824;4.682;2022-09-09T14:42:56;18.70;99.90
37998;DHT22;24079;51.824;4.682;2022-09-09T14:45:23;18.70;99.90
37998;DHT22;24079;51.824;4.682;2022-09-09T14:47:51;18.70;99.90
37998;DHT22;24079;51.824;4.682;2022-09-09T14:50:20;18.70;99.90
37998;DHT22;24079;51.824;4.682;2022-09-09T14:52:46;18.70;99.90
37998;DHT22;24079;51.824;4.682;2022-09-09T14:55:12;18.60;99.90
37998;DHT22;24079;51.824;4.682;2022-09-09T14:57:38;18.60;99.90
37998;DHT22;24079;51.824;4.682;2022-09-09T15:00:06;18.70;99.90
37998;DHT22;24079;51.824;4.682;2022-09-09T15:02:32;18.80;99.90
37998;DHT22;24079;51.824;4.682;2022-09-09T15:04:58;18.80;99.90
37998;DHT22;24079;51.824;4.682;2022-09-09T15:07:24;18.80;99.90
37998;DHT22;24079;51.824;4.682;2022-09-09T15:09:50;18.90;99.90
37998;DHT22;24079;51.824;4.682;2022-09-09T15:12:16;19.00;99.90
37998;DHT22;24079;51.824;4.682;2022-09-09T15:14:44;19.00;99.90
37998;DHT22;24079;51.824;4.682;2022-09-09T15:17:11;19.00;99.90
37998;DHT22;24079;51.824;4.682;2022-09-09T15:19:37;18.90;99.90
37998;DHT22;24079;51.824;4.682;2022-09-09T15:22:04;18.90;99.90
37998;DHT22;24079;51.824;4.682;2022-09-09T15:24:31;18.90;99.90
37998;DHT22;24079;51.824;4.682;2022-09-09T15:26:57;18.90;99.90
37998;DHT22;24079;51.824;4.682;2022-09-09T15:29:23;18.90;99.90
37998;DHT22;24079;51.824;4.682;2022-09-09T15:31:49;18.90;99.90
37998;DHT22;24079;51.824;4.682;2022-09-09T15:34:14;18.80;99.90
37998;DHT22;24079;51.824;4.682;2022-09-09T15:36:42;18.80;99.90
37998;DHT22;24079;51.824;4.682;2022-09-09T15:39:10;18.80;99.90
37998;DHT22;24079;51.824;4.682;2022-09-09T15:41:38;19.00;99.90
37998;DHT22;24079;51.824;4.682;2022-09-09T15:44:05;19.20;99.90
37998;DHT22;24079;51.824;4.682;2022-09-09T15:46:39;19.40;99.90
37998;DHT22;24079;51.824;4.682;2022-09-09T15:51:31;19.40;99.90
37998;DHT22;24079;51.824;4.682;2022-09-09T15:53:58;19.30;99.90
37998;DHT22;24079;51.824;4.682;2022-09-09T15:56:25;19.20;99.90
37998;DHT22;24079;51.824;4.682;2022-09-09T15:58:53;19.40;99.90
37998;DHT22;24079;51.824;4.682;2022-09-09T16:01:19;19.50;99.90
37998;DHT22;24079;51.824;4.682;2022-09-09T16:03:45;19.50;99.90
37998;DHT22;24079;51.824;4.682;2022-09-09T16:06:20;19.50;99.90
37998;DHT22;24079;51.824;4.682;2022-09-09T16:08:47;19.50;99.90
37998;DHT22;24079;51.824;4.682;2022-09-09T16:11:18;19.40;99.90
37998;DHT22;24079;51.824;4.682;2022-09-09T16:13:46;19.40;99.90
37998;DHT22;24079;51.824;4.682;2022-09-09T16:16:13;19.40;99.90
37998;DHT22;24079;51.824;4.682;2022-09-09T16:18:48;19.50;99.90
37998;DHT22;24079;51.824;4.682;2022-09-09T16:21:23;19.40;99.90
37998;DHT22;24079;51.824;4.682;2022-09-09T16:23:50;19.50;99.90
37998;DHT22;24079;51.824;4.682;2022-09-09T16:26:17;19.50;99.90
37998;DHT22;24079;51.824;4.682;2022-09-09T16:28:43;19.50;99.90
37998;DHT22;24079;51.824;4.682;2022-09-09T16:31:11;19.50;99.90
37998;DHT22;24079;51.824;4.682;2022-09-09T16:33:39;19.40;99.90
37998;DHT22;24079;51.824;4.682;2022-09-09T16:36:16;19.40;99.90
37998;DHT22;24079;51.824;4.682;2022-09-09T16:38:42;19.40;99.90
37998;DHT22;24079;51.824;4.682;2022-09-09T16:41:10;19.50;99.90
37998;DHT22;24079;51.824;4.682;2022-09-09T16:43:36;19.40;99.90
37998;DHT22;24079;51.824;4.682;2022-09-09T16:46:14;19.40;99.90
37998;DHT22;24079;51.824;4.682;2022-09-09T16:48:41;19.40;99.90
37998;DHT22;24079;51.824;4.682;2022-09-09T16:51:15;19.50;99.90
37998;DHT22;24079;51.824;4.682;2022-09-09T16:53:42;19.40;99.90
37998;DHT22;24079;51.824;4.682;2022-09-09T16:56:16;19.30;99.90
37998;DHT22;24079;51.824;4.682;2022-09-09T16:58:42;19.20;99.90
37998;DHT22;24079;51.824;4.682;2022-09-09T17:01:09;19.10;99.90
37998;DHT22;24079;51.824;4.682;2022-09-09T17:03:39;19.00;99.90
37998;DHT22;24079;51.824;4.682;2022-09-09T17:06:12;19.00;99.90
37998;DHT22;24079;51.824;4.682;2022-09-09T17:08:39;18.90;99.90
37998;DHT22;24079;51.824;4.682;2022-09-09T17:11:14;18.90;99.90
37998;DHT22;24079;51.824;4.682;2022-09-09T17:13:42;18.80;99.90
37998;DHT22;24079;51.824;4.682;2022-09-09T17:16:08;18.80;99.90
37998;DHT22;24079;51.824;4.682;2022-09-09T17:18:34;18.80;99.90
37998;DHT22;24079;51.824;4.682;2022-09-09T17:21:05;18.70;99.90
37998;DHT22;24079;51.824;4.682;2022-09-09T17:23:33;18.80;99.90
37998;DHT22;24079;51.824;4.682;2022-09-09T17:25:59;18.80;99.90
37998;DHT22;24079;51.824;4.682;2022-09-09T17:28:26;18.70;99.90
37998;DHT22;24079;51.824;4.682;2022-09-09T17:30:59;18.80;99.90
37998;DHT22;24079;51.824;4.682;2022-09-09T17:33:30;18.80;99.90
37998;DHT22;24079;51.824;4.682;2022-09-09T17:35:57;18.80;99.90
37998;DHT22;24079;51.824;4.682;2022-09-09T17:38:24;18.70;99.90
37998;DHT22;24079;51.824;4.682;2022-09-09T17:40:50;18.60;99.90
37998;DHT22;24079;51.824;4.682;2022-09-09T17:43:25;18.50;99.90
37998;DHT22;24079;51.824;4.682;2022-09-09T17:45:51;18.40;99.90
37998;DHT22;24079;51.824;4.682;2022-09-09T17:48:16;18.40;99.90
37998;DHT22;24079;51.824;4.682;2022-09-09T17:50:42;18.30;99.90
37998;DHT22;24079;51.824;4.682;2022-09-09T17:53:08;18.30;99.90